createdAt,value
2023-12-18T00:00:38.208Z,93.09
2023-12-18T00:03:05.163Z,92.87
2023-12-18T00:05:31.874Z,93.02
2023-12-18T00:07:58.355Z,93.23
2023-12-18T00:10:24.894Z,93.30
2023-12-18T00:12:51.328Z,94.29
2023-12-18T00:15:18.018Z,94.08
2023-12-18T00:17:44.873Z,94.15
2023-12-18T00:20:12.060Z,94.13
2023-12-18T00:22:38.768Z,93.89
2023-12-18T00:25:05.554Z,93.95
2023-12-18T00:27:33.007Z,93.91
2023-12-18T00:29:59.918Z,94.18
2023-12-18T00:32:26.657Z,94.05
2023-12-18T00:34:53.243Z,93.93
2023-12-18T00:37:19.938Z,93.78
2023-12-18T00:39:46.464Z,93.77
2023-12-18T00:42:12.924Z,93.82
2023-12-18T00:44:39.462Z,94.01
2023-12-18T00:47:06.069Z,93.90
2023-12-18T00:49:33.791Z,94.22
2023-12-18T00:52:00.922Z,94.65
2023-12-18T00:54:27.577Z,94.41
2023-12-18T00:56:54.286Z,94.11
2023-12-18T01:00:36.157Z,93.83
2023-12-18T01:03:02.729Z,93.84
2023-12-18T01:05:29.208Z,94.15
2023-12-18T01:07:55.655Z,94.17
2023-12-18T01:10:22.072Z,94.65
2023-12-18T01:12:48.522Z,94.42
2023-12-18T01:15:15.025Z,94.32
2023-12-18T01:17:41.868Z,94.45
2023-12-18T01:20:08.911Z,94.28
2023-12-18T01:22:35.521Z,94.38
2023-12-18T01:25:03.857Z,94.43
2023-12-18T01:27:30.644Z,94.50
2023-12-18T01:29:57.241Z,94.60
2023-12-18T01:32:23.773Z,94.51
2023-12-18T01:34:50.377Z,94.48
2023-12-18T01:37:16.903Z,94.41
2023-12-18T01:39:43.395Z,94.68
2023-12-18T01:42:09.973Z,94.62
2023-12-18T01:44:36.439Z,94.46
2023-12-18T01:47:03.433Z,94.22
2023-12-18T01:49:30.002Z,94.58
2023-12-18T01:51:56.572Z,94.69
2023-12-18T01:54:23.920Z,94.49
2023-12-18T01:56:55.603Z,94.39
2023-12-18T01:59:23.789Z,94.48
2023-12-18T02:01:52.153Z,94.61
2023-12-18T02:04:20.397Z,94.65
2023-12-18T02:06:48.385Z,94.70
2023-12-18T02:09:16.800Z,94.51
2023-12-18T02:11:50.126Z,94.59
2023-12-18T02:14:16.606Z,94.52
2023-12-18T02:16:43.091Z,94.46
2023-12-18T02:19:29.676Z,94.68
2023-12-18T02:21:57.652Z,94.36
2023-12-18T02:24:24.822Z,94.13
2023-12-18T02:26:51.921Z,94.11
2023-12-18T02:29:18.341Z,93.88
2023-12-18T02:31:44.795Z,94.29
2023-12-18T02:34:11.519Z,94.32
2023-12-18T02:36:38.096Z,94.38
2023-12-18T02:39:04.641Z,94.17
2023-12-18T02:41:31.120Z,94.26
2023-12-18T02:43:58.460Z,94.17
2023-12-18T02:46:24.942Z,94.31
2023-12-18T02:48:51.536Z,94.28
2023-12-18T02:51:18.088Z,94.25
2023-12-18T02:53:44.665Z,94.30
2023-12-18T02:56:14.186Z,94.02
2023-12-18T02:58:41.630Z,94.50
2023-12-18T03:01:08.104Z,94.51
2023-12-18T03:03:34.931Z,94.72
2023-12-18T03:06:02.966Z,94.61
2023-12-18T03:08:29.494Z,94.45
2023-12-18T03:10:56.005Z,94.86
2023-12-18T03:13:22.495Z,95.24
2023-12-18T03:15:49.303Z,95.04
2023-12-18T03:18:16.011Z,94.83
2023-12-18T03:20:42.557Z,94.74
2023-12-18T03:23:09.032Z,94.63
2023-12-18T03:25:35.494Z,94.56
2023-12-18T03:28:02.209Z,94.70
2023-12-18T03:30:28.727Z,94.95
2023-12-18T03:32:56.849Z,95.08
2023-12-18T03:35:23.580Z,94.95
2023-12-18T03:37:50.079Z,94.68
2023-12-18T03:40:16.544Z,94.52
2023-12-18T03:42:43.131Z,94.73
2023-12-18T03:45:10.151Z,94.82
2023-12-18T03:47:36.751Z,94.68
2023-12-18T03:50:03.602Z,94.60
2023-12-18T03:52:30.112Z,94.56
2023-12-18T03:54:56.673Z,94.64
2023-12-18T03:57:23.382Z,94.29
2023-12-18T03:59:49.863Z,94.25
2023-12-18T04:02:16.533Z,94.31
2023-12-18T04:04:43.065Z,94.49
2023-12-18T04:07:09.643Z,94.43
2023-12-18T04:09:39.556Z,94.12
2023-12-18T04:12:06.626Z,94.17
2023-12-18T04:14:33.045Z,94.43
2023-12-18T04:16:59.506Z,94.31
2023-12-18T04:19:26.262Z,94.49
2023-12-18T04:21:52.996Z,94.55
2023-12-18T04:24:20.805Z,94.59
2023-12-18T04:26:47.881Z,94.43
2023-12-18T04:29:14.412Z,94.45
2023-12-18T04:31:41.981Z,94.69
2023-12-18T04:34:09.675Z,94.63
2023-12-18T04:36:40.505Z,94.59
2023-12-18T04:39:07.205Z,94.45
2023-12-18T04:41:33.891Z,94.14
2023-12-18T04:44:00.433Z,94.44
2023-12-18T04:46:29.335Z,94.44
2023-12-18T04:48:55.976Z,94.37
2023-12-18T04:51:22.564Z,94.32
2023-12-18T04:53:49.059Z,94.57
2023-12-18T04:56:15.514Z,94.49
2023-12-18T04:58:41.978Z,94.54
2023-12-18T05:01:10.762Z,94.35
2023-12-18T05:03:40.439Z,94.49
2023-12-18T05:06:22.335Z,94.35
2023-12-18T05:08:52.145Z,94.41
2023-12-18T05:11:20.199Z,94.47
2023-12-18T05:13:47.837Z,94.40
2023-12-18T05:16:15.364Z,94.34
2023-12-18T05:18:42.041Z,94.35
2023-12-18T05:21:08.615Z,94.38
2023-12-18T05:23:35.065Z,94.53
2023-12-18T05:26:01.719Z,94.44
2023-12-18T05:28:28.764Z,94.45
2023-12-18T05:30:55.485Z,94.58
2023-12-18T05:33:22.392Z,94.59
2023-12-18T05:35:49.098Z,94.39
2023-12-18T05:38:16.593Z,93.98
2023-12-18T05:40:43.166Z,94.05
2023-12-18T05:43:09.693Z,94.37
2023-12-18T05:45:36.284Z,94.77
2023-12-18T05:48:02.919Z,94.55
2023-12-18T05:50:29.560Z,94.28
2023-12-18T05:52:56.062Z,94.08
2023-12-18T05:55:22.724Z,94.29
2023-12-18T05:57:49.260Z,94.40
2023-12-18T06:00:16.440Z,94.51
2023-12-18T06:02:43.168Z,94.03
2023-12-18T06:05:09.913Z,93.98
2023-12-18T06:07:38.837Z,94.07
2023-12-18T06:10:07.817Z,94.06
2023-12-18T06:12:34.296Z,94.21
2023-12-18T06:15:00.880Z,94.09
2023-12-18T06:17:27.385Z,94.16
2023-12-18T06:19:53.962Z,94.21
2023-12-18T06:22:20.467Z,94.63
2023-12-18T06:24:46.984Z,94.67
2023-12-18T06:27:13.580Z,94.47
2023-12-18T06:29:40.161Z,94.51
2023-12-18T06:32:07.301Z,94.42
2023-12-18T06:34:34.430Z,94.35
2023-12-18T06:37:01.044Z,94.20
2023-12-18T06:39:28.068Z,94.26
2023-12-18T06:41:56.695Z,94.47
2023-12-18T06:44:23.181Z,94.63
2023-12-18T06:46:50.000Z,94.37
2023-12-18T06:49:16.713Z,94.20
2023-12-18T06:51:45.577Z,94.25
2023-12-18T06:54:13.886Z,94.30
2023-12-18T06:56:40.490Z,94.73
2023-12-18T06:59:07.627Z,94.81
2023-12-18T07:01:35.120Z,94.55
2023-12-18T07:04:04.270Z,94.55
2023-12-18T07:06:31.879Z,94.50
2023-12-18T07:08:58.543Z,94.58
2023-12-18T07:11:25.069Z,94.33
2023-12-18T07:13:53.257Z,94.25
2023-12-18T07:16:23.825Z,94.51
2023-12-18T07:18:50.970Z,94.28
2023-12-18T07:21:17.962Z,94.35
2023-12-18T07:23:44.614Z,94.40
2023-12-18T07:26:14.688Z,94.57
2023-12-18T07:28:44.491Z,94.50
2023-12-18T07:32:36.780Z,94.62
2023-12-18T07:35:03.831Z,94.78
2023-12-18T07:37:31.685Z,94.76
2023-12-18T07:40:02.775Z,94.67
2023-12-18T07:42:32.403Z,94.55
2023-12-18T07:44:59.160Z,94.76
2023-12-18T07:47:25.700Z,94.87
2023-12-18T07:49:52.259Z,94.90
2023-12-18T07:52:19.009Z,94.94
2023-12-18T07:54:45.694Z,94.97
2023-12-18T07:57:12.506Z,94.94
2023-12-18T07:59:41.033Z,95.24
2023-12-18T08:02:08.998Z,95.53
2023-12-18T08:04:39.446Z,95.67
2023-12-18T08:07:06.499Z,95.58
2023-12-18T08:09:38.581Z,95.48
2023-12-18T08:12:05.784Z,95.17
2023-12-18T08:14:32.244Z,95.05
2023-12-18T08:16:58.662Z,94.45
2023-12-18T08:19:25.131Z,94.16
2023-12-18T08:21:51.778Z,93.48
2023-12-18T08:24:21.341Z,92.97
2023-12-18T08:26:51.120Z,93.25
2023-12-18T08:29:17.648Z,93.15
2023-12-18T08:31:44.297Z,93.02
2023-12-18T08:34:11.164Z,92.74
2023-12-18T08:36:37.984Z,92.42
2023-12-18T08:39:04.965Z,91.71
2023-12-18T08:41:31.713Z,91.17
2023-12-18T08:44:05.385Z,90.65
2023-12-18T08:46:32.767Z,89.86
2023-12-18T08:48:59.933Z,90.49
2023-12-18T08:51:26.563Z,88.67
2023-12-18T08:53:55.540Z,86.58
2023-12-18T08:56:23.617Z,85.40
2023-12-18T08:58:50.988Z,85.79
2023-12-18T09:01:18.121Z,84.37
2023-12-18T09:03:44.728Z,83.50
2023-12-18T09:06:11.407Z,82.36
2023-12-18T09:08:40.859Z,81.66
2023-12-18T09:11:08.278Z,80.49
2023-12-18T09:13:36.188Z,79.69
2023-12-18T09:16:07.116Z,79.92
2023-12-18T09:18:34.435Z,79.24
2023-12-18T09:21:01.390Z,78.73
2023-12-18T09:23:28.224Z,79.28
2023-12-18T09:25:54.747Z,79.64
2023-12-18T09:28:21.253Z,80.04
2023-12-18T09:30:48.207Z,80.76
2023-12-18T09:33:15.011Z,81.06
2023-12-18T09:35:41.651Z,82.35
2023-12-18T09:38:08.249Z,83.70
2023-12-18T09:40:34.820Z,84.24
2023-12-18T09:43:03.625Z,84.68
2023-12-18T09:45:31.771Z,84.66
2023-12-18T09:47:59.864Z,84.84
2023-12-18T09:50:26.971Z,86.63
2023-12-18T09:53:02.905Z,87.08
2023-12-18T09:55:32.635Z,87.41
2023-12-18T09:58:01.210Z,87.79
2023-12-18T10:00:28.838Z,87.08
2023-12-18T10:02:56.924Z,83.94
2023-12-18T10:05:23.501Z,80.68
2023-12-18T10:07:50.442Z,78.19
2023-12-18T10:10:17.291Z,76.36
2023-12-18T10:12:47.575Z,74.76
2023-12-18T10:15:15.264Z,73.18
2023-12-18T10:17:43.622Z,71.45
2023-12-18T10:20:11.454Z,69.77
2023-12-18T10:22:41.255Z,68.78
2023-12-18T10:25:12.077Z,67.31
2023-12-18T10:27:40.066Z,66.37
2023-12-18T10:30:10.934Z,67.18
2023-12-18T10:32:41.354Z,67.20
2023-12-18T10:35:09.200Z,66.99
2023-12-18T10:37:38.423Z,67.49
2023-12-18T10:40:08.911Z,69.13
2023-12-18T10:42:39.841Z,71.14
2023-12-18T10:45:08.607Z,72.67
2023-12-18T10:47:36.638Z,72.00
2023-12-18T10:50:08.972Z,71.17
2023-12-18T10:52:37.290Z,72.26
2023-12-18T10:55:06.051Z,73.03
2023-12-18T10:57:38.617Z,73.77
2023-12-18T11:00:09.332Z,75.51
2023-12-18T11:02:39.782Z,75.10
2023-12-18T11:05:07.409Z,75.83
2023-12-18T11:07:35.896Z,75.21
2023-12-18T11:10:03.683Z,76.45
2023-12-18T11:12:31.302Z,75.95
2023-12-18T11:15:11.243Z,73.51
2023-12-18T11:17:57.185Z,75.53
2023-12-18T11:20:37.392Z,76.40
2023-12-18T11:23:05.789Z,76.07
2023-12-18T11:25:49.337Z,77.25
2023-12-18T11:28:17.185Z,77.56
2023-12-18T11:30:45.207Z,77.18
2023-12-18T11:33:15.842Z,75.25
2023-12-18T11:35:49.272Z,74.01
2023-12-18T11:38:23.620Z,74.55
2023-12-18T11:40:57.669Z,75.13
2023-12-18T11:43:38.260Z,75.30
2023-12-18T11:46:17.182Z,73.86
2023-12-18T11:48:46.280Z,71.71
2023-12-18T11:51:15.009Z,69.82
2023-12-18T11:53:41.644Z,68.55
2023-12-18T11:56:12.869Z,68.99
2023-12-18T11:58:42.616Z,66.54
2023-12-18T12:01:09.985Z,65.09
2023-12-18T12:03:38.302Z,64.88
2023-12-18T12:06:07.662Z,67.39
2023-12-18T12:08:34.766Z,68.23
2023-12-18T12:11:01.756Z,68.46
2023-12-18T12:13:28.808Z,65.65
2023-12-18T12:16:00.471Z,64.21
2023-12-18T12:18:29.207Z,63.57
2023-12-18T12:20:56.609Z,63.16
2023-12-18T12:23:24.878Z,64.03
2023-12-18T12:25:52.440Z,62.64
2023-12-18T12:28:19.736Z,62.24
2023-12-18T12:30:47.692Z,63.96
2023-12-18T12:33:15.110Z,64.93
2023-12-18T12:35:44.099Z,64.81
2023-12-18T12:38:12.088Z,63.76
2023-12-18T12:40:46.666Z,63.94
2023-12-18T12:43:15.761Z,62.20
2023-12-18T12:45:43.442Z,63.43
2023-12-18T12:48:11.699Z,65.57
2023-12-18T12:50:39.925Z,66.20
2023-12-18T12:53:13.210Z,65.60
2023-12-18T12:55:42.288Z,64.93
2023-12-18T12:58:11.366Z,64.23
2023-12-18T13:00:38.705Z,63.61
2023-12-18T13:03:05.859Z,64.14
2023-12-18T13:05:32.828Z,66.53
2023-12-18T13:08:01.569Z,66.58
2023-12-18T13:10:32.041Z,65.42
2023-12-18T13:12:58.902Z,64.72
2023-12-18T13:15:26.584Z,64.88
2023-12-18T13:17:55.913Z,64.31
2023-12-18T13:20:28.168Z,65.78
2023-12-18T13:22:56.272Z,67.61
2023-12-18T13:25:24.353Z,65.67
2023-12-18T13:27:52.218Z,65.04
2023-12-18T13:30:19.199Z,67.08
2023-12-18T13:32:46.248Z,68.29
2023-12-18T13:35:13.065Z,68.60
2023-12-18T13:37:41.154Z,68.75
2023-12-18T13:40:08.546Z,68.45
2023-12-18T13:42:35.022Z,68.63
2023-12-18T13:45:03.017Z,68.18
2023-12-18T13:47:29.869Z,67.79
2023-12-18T13:49:56.538Z,68.85
2023-12-18T13:52:23.225Z,67.97
2023-12-18T13:54:49.987Z,67.56
2023-12-18T13:57:16.829Z,68.57
2023-12-18T13:59:44.195Z,68.89
2023-12-18T14:02:13.091Z,69.13
2023-12-18T14:04:39.771Z,68.26
2023-12-18T14:07:07.061Z,68.80
2023-12-18T14:09:33.543Z,69.01
2023-12-18T14:12:00.066Z,69.77
2023-12-18T14:14:26.826Z,71.78
2023-12-18T14:16:53.879Z,72.12
2023-12-18T14:19:23.322Z,71.93
2023-12-18T14:21:49.987Z,71.12
2023-12-18T14:24:18.032Z,71.54
2023-12-18T14:26:46.063Z,71.80
2023-12-18T14:29:14.932Z,71.70
2023-12-18T14:31:42.167Z,71.86
2023-12-18T14:34:09.131Z,72.16
2023-12-18T14:36:36.670Z,72.71
2023-12-18T14:39:03.773Z,73.03
2023-12-18T14:41:30.237Z,73.52
2023-12-18T14:43:57.827Z,73.65
2023-12-18T14:46:25.621Z,73.89
2023-12-18T14:48:52.511Z,75.25
2023-12-18T14:51:19.154Z,76.08
2023-12-18T14:53:47.121Z,76.55
2023-12-18T14:56:15.467Z,76.41
2023-12-18T14:58:43.677Z,76.24
2023-12-18T15:01:10.787Z,76.74
2023-12-18T15:03:37.405Z,76.55
2023-12-18T15:06:07.965Z,77.31
2023-12-18T15:08:34.906Z,77.60
2023-12-18T15:11:02.141Z,77.98
2023-12-18T15:13:28.641Z,77.71
2023-12-18T15:15:55.239Z,77.17
2023-12-18T15:18:21.854Z,77.61
2023-12-18T15:20:48.879Z,78.09
2023-12-18T15:23:15.531Z,78.92
2023-12-18T15:25:42.175Z,79.07
2023-12-18T15:28:09.224Z,79.52
2023-12-18T15:30:36.244Z,79.73
2023-12-18T15:33:02.891Z,79.77
2023-12-18T15:35:29.510Z,79.18
2023-12-18T15:37:56.776Z,79.26
2023-12-18T15:40:23.311Z,79.68
2023-12-18T15:42:50.044Z,80.55
2023-12-18T15:45:17.955Z,81.80
2023-12-18T15:47:44.786Z,82.70
2023-12-18T15:50:12.189Z,83.60
2023-12-18T15:52:38.792Z,83.94
2023-12-18T15:55:05.511Z,83.82
2023-12-18T15:57:32.089Z,83.23
2023-12-18T15:59:58.543Z,83.17
2023-12-18T16:02:25.009Z,83.04
2023-12-18T16:04:51.581Z,84.18
2023-12-18T16:07:20.337Z,84.95
2023-12-18T16:09:49.827Z,85.07
2023-12-18T16:12:22.266Z,85.53
2023-12-18T16:14:49.092Z,85.78
2023-12-18T16:17:15.694Z,85.80
2023-12-18T16:19:42.311Z,86.34
2023-12-18T16:22:09.106Z,85.75
2023-12-18T16:24:36.960Z,85.69
2023-12-18T16:27:07.722Z,85.86
2023-12-18T16:29:40.067Z,86.03
2023-12-18T16:32:09.090Z,86.37
2023-12-18T16:34:41.085Z,86.14
2023-12-18T16:37:15.648Z,86.21
2023-12-18T16:39:44.228Z,85.57
2023-12-18T16:42:12.235Z,85.17
2023-12-18T16:44:39.420Z,85.41
2023-12-18T16:47:06.459Z,85.24
2023-12-18T16:49:33.027Z,85.42
2023-12-18T16:51:59.636Z,85.37
2023-12-18T16:54:26.423Z,85.38
2023-12-18T16:56:55.557Z,85.95
2023-12-18T16:59:22.691Z,85.91
2023-12-18T17:01:49.833Z,85.97
2023-12-18T17:04:16.515Z,85.80
2023-12-18T17:06:43.885Z,85.38
2023-12-18T17:09:11.933Z,85.15
2023-12-18T17:11:40.386Z,85.15
2023-12-18T17:14:07.805Z,85.10
2023-12-18T17:16:37.768Z,85.14
2023-12-18T17:19:04.775Z,85.25
2023-12-18T17:21:31.673Z,85.26
2023-12-18T17:23:58.504Z,85.44
2023-12-18T17:26:25.053Z,85.25
2023-12-18T17:28:54.901Z,85.33
2023-12-18T17:31:25.274Z,85.36
2023-12-18T17:33:52.215Z,84.91
2023-12-18T17:36:18.776Z,85.26
2023-12-18T17:38:45.197Z,85.50
2023-12-18T17:41:11.743Z,85.49
2023-12-18T17:43:39.023Z,85.49
2023-12-18T17:46:05.472Z,85.44
2023-12-18T17:48:32.263Z,85.49
2023-12-18T17:51:01.703Z,85.16
2023-12-18T17:53:28.680Z,84.90
2023-12-18T17:55:55.600Z,84.95
2023-12-18T17:58:22.217Z,84.82
2023-12-18T18:00:48.729Z,84.86
2023-12-18T18:03:17.640Z,84.77
2023-12-18T18:05:44.161Z,84.60
2023-12-18T18:08:10.678Z,83.93
2023-12-18T18:10:37.229Z,83.32
2023-12-18T18:13:04.130Z,83.22
2023-12-18T18:15:33.811Z,83.04
2023-12-18T18:18:01.071Z,82.94
2023-12-18T18:20:28.293Z,82.68
2023-12-18T18:22:54.826Z,82.51
2023-12-18T18:25:21.358Z,82.61
2023-12-18T18:27:47.953Z,82.69
2023-12-18T18:30:14.717Z,82.72
2023-12-18T18:32:41.455Z,83.21
2023-12-18T18:35:08.302Z,83.24
2023-12-18T18:37:34.795Z,82.89
2023-12-18T18:40:01.662Z,83.11
2023-12-18T18:42:28.706Z,82.70
2023-12-18T18:44:55.465Z,82.71
2023-12-18T18:47:22.188Z,82.95
2023-12-18T18:49:50.541Z,82.09
2023-12-18T18:52:20.230Z,81.07
2023-12-18T18:57:47.216Z,79.19
2023-12-18T19:00:15.703Z,77.84
2023-12-18T19:02:42.730Z,77.48
2023-12-18T19:05:09.619Z,77.35
2023-12-18T19:07:36.085Z,78.05
2023-12-18T19:10:03.415Z,78.45
2023-12-18T19:12:33.805Z,78.46
2023-12-18T19:15:00.468Z,79.33
2023-12-18T19:17:27.167Z,79.93
2023-12-18T19:19:54.071Z,79.89
2023-12-18T19:22:20.667Z,79.49
2023-12-18T19:24:47.260Z,79.68
2023-12-18T19:27:15.274Z,79.79
2023-12-18T19:29:41.753Z,79.43
2023-12-18T19:32:08.234Z,79.89
2023-12-18T19:34:34.983Z,79.88
2023-12-18T19:37:04.277Z,79.93
2023-12-18T19:39:30.799Z,79.98
2023-12-18T19:41:57.627Z,80.13
2023-12-18T19:44:24.357Z,80.17
2023-12-18T19:46:54.768Z,80.64
2023-12-18T19:49:22.282Z,80.59
2023-12-18T19:51:51.060Z,80.28
2023-12-18T19:54:17.572Z,80.01
2023-12-18T19:56:44.073Z,79.72
2023-12-18T19:59:11.179Z,79.39
2023-12-18T20:01:37.638Z,79.54
2023-12-18T20:04:04.562Z,79.77
2023-12-18T20:06:31.788Z,79.98
2023-12-18T20:08:58.682Z,80.16
2023-12-18T20:11:25.175Z,80.06
2023-12-18T20:13:51.639Z,79.88
2023-12-18T20:16:18.139Z,79.96
2023-12-18T20:18:44.786Z,80.15
2023-12-18T20:21:11.319Z,80.10
2023-12-18T20:23:38.215Z,80.14
2023-12-18T20:26:05.142Z,80.79
2023-12-18T20:28:33.885Z,81.09
2023-12-18T20:31:03.584Z,81.37
2023-12-18T20:33:30.380Z,81.29
2023-12-18T20:35:57.196Z,81.52
2023-12-18T20:38:23.616Z,81.15
2023-12-18T20:40:50.317Z,80.97
2023-12-18T20:43:17.010Z,81.64
2023-12-18T20:45:45.402Z,82.37
2023-12-18T20:48:12.103Z,82.58
2023-12-18T20:50:38.793Z,83.06
2023-12-18T20:53:05.497Z,83.47
2023-12-18T20:55:32.044Z,83.76
2023-12-18T20:58:00.466Z,84.13
2023-12-18T21:00:27.949Z,84.18
2023-12-18T21:02:55.245Z,84.34
2023-12-18T21:05:24.554Z,84.58
2023-12-18T21:07:52.846Z,84.76
2023-12-18T21:10:19.532Z,85.20
2023-12-18T21:12:46.237Z,85.45
2023-12-18T21:15:13.033Z,85.63
2023-12-18T21:17:40.481Z,85.63
2023-12-18T21:20:09.540Z,86.02
2023-12-18T21:22:37.462Z,86.09
2023-12-18T21:25:05.865Z,85.84
2023-12-18T21:27:33.047Z,85.91
2023-12-18T21:29:59.774Z,85.86
2023-12-18T21:32:26.252Z,85.91
2023-12-18T21:34:52.849Z,86.04
2023-12-18T21:37:19.383Z,85.95
2023-12-18T21:39:45.922Z,86.10
2023-12-18T21:42:12.632Z,86.05
2023-12-18T21:44:39.194Z,86.38
2023-12-18T21:47:05.807Z,86.22
2023-12-18T21:49:34.898Z,86.04
2023-12-18T21:52:03.504Z,86.16
2023-12-18T21:54:30.198Z,85.83
2023-12-18T21:56:56.948Z,85.94
2023-12-18T21:59:24.249Z,85.93
2023-12-18T22:01:50.804Z,86.03
2023-12-18T22:04:18.006Z,86.12
2023-12-18T22:06:44.825Z,86.18
2023-12-18T22:09:11.270Z,86.40
2023-12-18T22:11:37.813Z,86.72
2023-12-18T22:14:04.825Z,86.63
2023-12-18T22:16:31.293Z,86.70
2023-12-18T22:18:57.864Z,87.02
2023-12-18T22:21:24.892Z,87.39
2023-12-18T22:23:51.350Z,87.21
2023-12-18T22:26:17.810Z,87.44
2023-12-18T22:28:44.301Z,87.49
2023-12-18T22:31:10.858Z,87.27
2023-12-18T22:33:39.056Z,87.05
2023-12-18T22:36:07.157Z,87.15
2023-12-18T22:38:33.611Z,87.12
2023-12-18T22:41:00.210Z,87.13
2023-12-18T22:43:26.688Z,87.28
2023-12-18T22:45:54.129Z,87.21
2023-12-18T22:48:22.004Z,87.10
2023-12-18T22:50:49.014Z,87.08
2023-12-18T22:53:19.211Z,86.77
2023-12-18T22:55:47.097Z,86.20
2023-12-18T22:58:15.009Z,85.96
2023-12-18T23:00:41.574Z,85.75
2023-12-18T23:03:08.199Z,85.45
2023-12-18T23:05:36.217Z,84.73
2023-12-18T23:08:03.196Z,84.37
2023-12-18T23:10:29.939Z,84.10
2023-12-18T23:12:57.265Z,83.58
2023-12-18T23:15:23.832Z,83.18
2023-12-18T23:17:50.363Z,82.74
2023-12-18T23:20:16.895Z,82.42
2023-12-18T23:22:43.610Z,82.08
2023-12-18T23:25:10.224Z,81.83
2023-12-18T23:27:36.860Z,81.89
2023-12-18T23:30:05.661Z,81.81
2023-12-18T23:32:32.312Z,81.91
2023-12-18T23:34:59.424Z,81.78
2023-12-18T23:37:26.136Z,81.83
2023-12-18T23:39:53.269Z,81.63
2023-12-18T23:42:20.045Z,81.64
2023-12-18T23:44:46.566Z,81.78
2023-12-18T23:47:13.185Z,81.80
2023-12-18T23:49:39.803Z,81.40
2023-12-18T23:52:06.655Z,81.72
2023-12-18T23:54:33.219Z,81.17
2023-12-18T23:57:01.274Z,81.03
2023-12-18T23:59:27.869Z,80.88
